sensor_id;sensor_type;location;lat;lon;timestamp;temperature;humidity
67192;HTU21D;54120;53.504;49.426;2023-02-23T00:00:11;-11.68;87.05
67192;HTU21D;54120;53.504;49.426;2023-02-23T00:02:48;-11.75;87.25
67192;HTU21D;54120;53.504;49.426;2023-02-23T00:05:16;-11.80;87.56
67192;HTU21D;54120;53.504;49.426;2023-02-23T00:07:43;-11.79;87.96
67192;HTU21D;54120;53.504;49.426;2023-02-23T00:10:13;-11.79;88.03
67192;HTU21D;54120;53.504;49.426;2023-02-23T00:12:40;-11.78;88.27
67192;HTU21D;54120;53.504;49.426;2023-02-23T00:15:07;-11.79;88.39
67192;HTU21D;54120;53.504;49.426;2023-02-23T00:17:34;-11.79;88.28
67192;HTU21D;54120;53.504;49.426;2023-02-23T00:20:07;-11.79;88.37
67192;HTU21D;54120;53.504;49.426;2023-02-23T00:22:40;-11.81;88.45
67192;HTU21D;54120;53.504;49.426;2023-02-23T00:25:07;-11.83;88.86
67192;HTU21D;54120;53.504;49.426;2023-02-23T00:27:35;-11.85;88.51
67192;HTU21D;54120;53.504;49.426;2023-02-23T00:30:03;-11.85;88.65
67192;HTU21D;54120;53.504;49.426;2023-02-23T00:32:30;-11.86;88.68
67192;HTU21D;54120;53.504;49.426;2023-02-23T00:34:56;-11.89;88.86
67192;HTU21D;54120;53.504;49.426;2023-02-23T00:37:23;-11.85;89.11
67192;HTU21D;54120;53.504;49.426;2023-02-23T00:39:49;-11.82;89.02
67192;HTU21D;54120;53.504;49.426;2023-02-23T00:42:16;-11.86;88.76
67192;HTU21D;54120;53.504;49.426;2023-02-23T00:44:42;-11.86;88.85
67192;HTU21D;54120;53.504;49.426;2023-02-23T00:47:08;-11.93;88.18
67192;HTU21D;54120;53.504;49.426;2023-02-23T00:49:34;-11.96;88.65
67192;HTU21D;54120;53.504;49.426;2023-02-23T00:52:01;-11.93;88.68
67192;HTU21D;54120;53.504;49.426;2023-02-23T00:54:27;-11.96;88.58
67192;HTU21D;54120;53.504;49.426;2023-02-23T00:56:53;-11.99;88.44
67192;HTU21D;54120;53.504;49.426;2023-02-23T00:59:19;-11.99;88.51
67192;HTU21D;54120;53.504;49.426;2023-02-23T01:01:45;-12.03;88.57
67192;HTU21D;54120;53.504;49.426;2023-02-23T01:04:12;-12.05;88.60
67192;HTU21D;54120;53.504;49.426;2023-02-23T01:06:39;-12.05;88.57
67192;HTU21D;54120;53.504;49.426;2023-02-23T01:09:14;-12.00;88.78
67192;HTU21D;54120;53.504;49.426;2023-02-23T01:11:40;-12.01;88.59
67192;HTU21D;54120;53.504;49.426;2023-02-23T01:14:08;-12.00;88.39
67192;HTU21D;54120;53.504;49.426;2023-02-23T01:16:34;-12.06;88.12
67192;HTU21D;54120;53.504;49.426;2023-02-23T01:19:04;-12.08;87.98
67192;HTU21D;54120;53.504;49.426;2023-02-23T01:21:33;-12.08;88.29
67192;HTU21D;54120;53.504;49.426;2023-02-23T01:23:59;-12.13;87.92
67192;HTU21D;54120;53.504;49.426;2023-02-23T01:26:31;-12.11;88.54
67192;HTU21D;54120;53.504;49.426;2023-02-23T01:29:07;-12.13;88.31
67192;HTU21D;54120;53.504;49.426;2023-02-23T01:31:34;-12.15;88.35
67192;HTU21D;54120;53.504;49.426;2023-02-23T01:34:02;-12.22;87.80
67192;HTU21D;54120;53.504;49.426;2023-02-23T01:36:31;-12.23;88.23
67192;HTU21D;54120;53.504;49.426;2023-02-23T01:38:57;-12.25;87.94
67192;HTU21D;54120;53.504;49.426;2023-02-23T01:41:27;-12.28;88.09
67192;HTU21D;54120;53.504;49.426;2023-02-23T01:44:00;-12.32;88.15
67192;HTU21D;54120;53.504;49.426;2023-02-23T01:46:37;-12.33;87.86
67192;HTU21D;54120;53.504;49.426;2023-02-23T01:49:09;-12.32;88.28
67192;HTU21D;54120;53.504;49.426;2023-02-23T01:52:02;-12.32;88.21
67192;HTU21D;54120;53.504;49.426;2023-02-23T01:54:29;-12.33;87.59
67192;HTU21D;54120;53.504;49.426;2023-02-23T01:56:59;-12.37;87.32
67192;HTU21D;54120;53.504;49.426;2023-02-23T01:59:31;-12.40;87.38
67192;HTU21D;54120;53.504;49.426;2023-02-23T02:02:00;-12.39;87.35
67192;HTU21D;54120;53.504;49.426;2023-02-23T02:04:31;-12.43;87.31
67192;HTU21D;54120;53.504;49.426;2023-02-23T02:07:12;-12.43;87.43
67192;HTU21D;54120;53.504;49.426;2023-02-23T02:09:41;-12.48;87.26
67192;HTU21D;54120;53.504;49.426;2023-02-23T02:12:28;-12.48;86.93
67192;HTU21D;54120;53.504;49.426;2023-02-23T02:14:55;-12.49;86.77
67192;HTU21D;54120;53.504;49.426;2023-02-23T02:17:34;-12.57;86.13
67192;HTU21D;54120;53.504;49.426;2023-02-23T02:20:18;-12.62;86.45
67192;HTU21D;54120;53.504;49.426;2023-02-23T02:25:49;-12.60;86.23
67192;HTU21D;54120;53.504;49.426;2023-02-23T02:31:14;-12.64;85.82
67192;HTU21D;54120;53.504;49.426;2023-02-23T02:37:18;-12.73;85.81
67192;HTU21D;54120;53.504;49.426;2023-02-23T02:40:11;-12.71;85.91
67192;HTU21D;54120;53.504;49.426;2023-02-23T02:46:02;-12.74;85.33
67192;HTU21D;54120;53.504;49.426;2023-02-23T02:51:37;-12.71;85.14
67192;HTU21D;54120;53.504;49.426;2023-02-23T02:56:37;-12.78;84.88
67192;HTU21D;54120;53.504;49.426;2023-02-23T02:59:15;-12.78;85.22
67192;HTU21D;54120;53.504;49.426;2023-02-23T03:02:01;-12.78;84.88
67192;HTU21D;54120;53.504;49.426;2023-02-23T03:04:46;-12.78;85.14
67192;HTU21D;54120;53.504;49.426;2023-02-23T03:10:55;-12.82;84.64
67192;HTU21D;54120;53.504;49.426;2023-02-23T03:17:12;-12.85;84.71
67192;HTU21D;54120;53.504;49.426;2023-02-23T03:20:24;-12.88;84.83
67192;HTU21D;54120;53.504;49.426;2023-02-23T03:26:26;-12.95;84.59
67192;HTU21D;54120;53.504;49.426;2023-02-23T03:29:38;-12.93;85.20
67192;HTU21D;54120;53.504;49.426;2023-02-23T03:32:41;-12.94;84.76
67192;HTU21D;54120;53.504;49.426;2023-02-23T03:38:34;-12.94;84.74
67192;HTU21D;54120;53.504;49.426;2023-02-23T03:41:21;-12.89;84.29
67192;HTU21D;54120;53.504;49.426;2023-02-23T03:44:14;-12.89;84.19
67192;HTU21D;54120;53.504;49.426;2023-02-23T03:47:02;-12.92;83.80
67192;HTU21D;54120;53.504;49.426;2023-02-23T03:49:48;-12.89;83.76
67192;HTU21D;54120;53.504;49.426;2023-02-23T03:52:51;-12.94;83.77
67192;HTU21D;54120;53.504;49.426;2023-02-23T03:55:41;-12.94;84.10
67192;HTU21D;54120;53.504;49.426;2023-02-23T03:58:30;-12.99;83.41
67192;HTU21D;54120;53.504;49.426;2023-02-23T04:01:18;-12.99;84.09
67192;HTU21D;54120;53.504;49.426;2023-02-23T04:04:06;-12.95;83.84
67192;HTU21D;54120;53.504;49.426;2023-02-23T04:06:55;-12.98;83.82
67192;HTU21D;54120;53.504;49.426;2023-02-23T04:09:40;-12.98;83.66
67192;HTU21D;54120;53.504;49.426;2023-02-23T04:12:33;-12.92;84.26
67192;HTU21D;54120;53.504;49.426;2023-02-23T04:17:51;-12.91;83.46
67192;HTU21D;54120;53.504;49.426;2023-02-23T04:20:19;-12.91;83.75
67192;HTU21D;54120;53.504;49.426;2023-02-23T04:22:45;-12.85;83.57
67192;HTU21D;54120;53.504;49.426;2023-02-23T04:25:13;-12.85;83.47
67192;HTU21D;54120;53.504;49.426;2023-02-23T04:27:40;-12.89;83.71
67192;HTU21D;54120;53.504;49.426;2023-02-23T04:30:06;-12.84;83.20
67192;HTU21D;54120;53.504;49.426;2023-02-23T04:32:36;-12.83;82.97
67192;HTU21D;54120;53.504;49.426;2023-02-23T04:35:03;-12.82;83.18
67192;HTU21D;54120;53.504;49.426;2023-02-23T04:37:29;-12.79;83.11
67192;HTU21D;54120;53.504;49.426;2023-02-23T04:39:55;-12.80;82.90
67192;HTU21D;54120;53.504;49.426;2023-02-23T04:42:21;-12.72;83.06
67192;HTU21D;54120;53.504;49.426;2023-02-23T04:44:47;-12.73;82.57
67192;HTU21D;54120;53.504;49.426;2023-02-23T04:47:15;-12.72;82.34
67192;HTU21D;54120;53.504;49.426;2023-02-23T04:49:43;-12.78;81.77
67192;HTU21D;54120;53.504;49.426;2023-02-23T04:52:09;-12.75;81.89
67192;HTU21D;54120;53.504;49.426;2023-02-23T04:54:39;-12.78;81.76
67192;HTU21D;54120;53.504;49.426;2023-02-23T04:57:05;-12.74;81.88
67192;HTU21D;54120;53.504;49.426;2023-02-23T04:59:31;-12.74;81.76
67192;HTU21D;54120;53.504;49.426;2023-02-23T05:01:58;-12.68;81.88
67192;HTU21D;54120;53.504;49.426;2023-02-23T05:04:24;-12.71;81.55
67192;HTU21D;54120;53.504;49.426;2023-02-23T05:06:50;-12.72;81.15
67192;HTU21D;54120;53.504;49.426;2023-02-23T05:09:16;-12.64;81.44
67192;HTU21D;54120;53.504;49.426;2023-02-23T05:11:42;-12.56;81.29
67192;HTU21D;54120;53.504;49.426;2023-02-23T05:14:08;-12.48;81.00
67192;HTU21D;54120;53.504;49.426;2023-02-23T05:16:35;-12.41;80.37
67192;HTU21D;54120;53.504;49.426;2023-02-23T05:19:01;-12.36;79.69
67192;HTU21D;54120;53.504;49.426;2023-02-23T05:21:27;-12.36;79.43
67192;HTU21D;54120;53.504;49.426;2023-02-23T05:23:53;-12.25;79.30
67192;HTU21D;54120;53.504;49.426;2023-02-23T05:26:19;-12.30;78.82
67192;HTU21D;54120;53.504;49.426;2023-02-23T05:28:45;-12.27;78.57
67192;HTU21D;54120;53.504;49.426;2023-02-23T05:31:11;-12.35;78.75
67192;HTU21D;54120;53.504;49.426;2023-02-23T05:33:38;-12.35;78.52
67192;HTU21D;54120;53.504;49.426;2023-02-23T05:36:15;-12.32;78.94
67192;HTU21D;54120;53.504;49.426;2023-02-23T05:38:43;-12.24;78.92
67192;HTU21D;54120;53.504;49.426;2023-02-23T05:41:12;-12.23;78.68
67192;HTU21D;54120;53.504;49.426;2023-02-23T05:43:39;-12.14;79.11
67192;HTU21D;54120;53.504;49.426;2023-02-23T05:46:10;-12.15;78.11
67192;HTU21D;54120;53.504;49.426;2023-02-23T05:48:36;-12.33;78.72
67192;HTU21D;54120;53.504;49.426;2023-02-23T05:51:08;-12.26;79.56
67192;HTU21D;54120;53.504;49.426;2023-02-23T05:53:35;-12.30;79.15
67192;HTU21D;54120;53.504;49.426;2023-02-23T05:56:03;-12.30;79.81
67192;HTU21D;54120;53.504;49.426;2023-02-23T05:58:29;-12.28;78.73
67192;HTU21D;54120;53.504;49.426;2023-02-23T06:00:55;-12.18;79.03
67192;HTU21D;54120;53.504;49.426;2023-02-23T06:03:21;-12.08;78.70
67192;HTU21D;54120;53.504;49.426;2023-02-23T06:05:52;-12.05;79.02
67192;HTU21D;54120;53.504;49.426;2023-02-23T06:08:19;-12.00;78.31
67192;HTU21D;54120;53.504;49.426;2023-02-23T06:10:46;-11.88;76.56
67192;HTU21D;54120;53.504;49.426;2023-02-23T06:13:12;-11.91;76.70
67192;HTU21D;54120;53.504;49.426;2023-02-23T06:15:39;-11.83;77.23
67192;HTU21D;54120;53.504;49.426;2023-02-23T06:18:06;-11.65;76.70
67192;HTU21D;54120;53.504;49.426;2023-02-23T06:20:33;-11.56;75.42
67192;HTU21D;54120;53.504;49.426;2023-02-23T06:23:00;-11.67;76.28
67192;HTU21D;54120;53.504;49.426;2023-02-23T06:25:26;-11.60;75.28
67192;HTU21D;54120;53.504;49.426;2023-02-23T06:27:52;-11.56;75.14
67192;HTU21D;54120;53.504;49.426;2023-02-23T06:30:18;-11.56;74.57
67192;HTU21D;54120;53.504;49.426;2023-02-23T06:32:50;-11.37;74.72
67192;HTU21D;54120;53.504;49.426;2023-02-23T06:35:21;-11.14;73.95
67192;HTU21D;54120;53.504;49.426;2023-02-23T06:37:47;-11.09;72.81
67192;HTU21D;54120;53.504;49.426;2023-02-23T06:40:13;-11.17;72.14
67192;HTU21D;54120;53.504;49.426;2023-02-23T06:42:39;-11.16;72.74
67192;HTU21D;54120;53.504;49.426;2023-02-23T06:45:06;-10.87;72.33
67192;HTU21D;54120;53.504;49.426;2023-02-23T06:47:32;-10.89;70.78
67192;HTU21D;54120;53.504;49.426;2023-02-23T06:49:58;-11.10;71.73
67192;HTU21D;54120;53.504;49.426;2023-02-23T06:52:28;-11.30;71.83
67192;HTU21D;54120;53.504;49.426;2023-02-23T06:54:54;-11.26;72.19
67192;HTU21D;54120;53.504;49.426;2023-02-23T06:57:21;-11.15;72.36
67192;HTU21D;54120;53.504;49.426;2023-02-23T06:59:47;-10.93;71.16
67192;HTU21D;54120;53.504;49.426;2023-02-23T07:02:13;-10.97;71.25
67192;HTU21D;54120;53.504;49.426;2023-02-23T07:04:39;-11.16;71.16
67192;HTU21D;54120;53.504;49.426;2023-02-23T07:07:05;-11.26;71.45
67192;HTU21D;54120;53.504;49.426;2023-02-23T07:09:31;-11.20;72.06
67192;HTU21D;54120;53.504;49.426;2023-02-23T07:11:58;-10.94;71.62
67192;HTU21D;54120;53.504;49.426;2023-02-23T07:14:25;-10.65;69.33
67192;HTU21D;54120;53.504;49.426;2023-02-23T07:16:51;-10.61;70.03
67192;HTU21D;54120;53.504;49.426;2023-02-23T07:19:17;-10.47;68.99
67192;HTU21D;54120;53.504;49.426;2023-02-23T07:21:43;-10.73;70.00
67192;HTU21D;54120;53.504;49.426;2023-02-23T07:24:09;-10.91;69.78
67192;HTU21D;54120;53.504;49.426;2023-02-23T07:26:35;-11.09;70.68
67192;HTU21D;54120;53.504;49.426;2023-02-23T07:29:02;-11.15;71.26
67192;HTU21D;54120;53.504;49.426;2023-02-23T07:31:28;-11.27;71.90
67192;HTU21D;54120;53.504;49.426;2023-02-23T07:33:54;-11.46;73.07
67192;HTU21D;54120;53.504;49.426;2023-02-23T07:36:21;-11.52;72.61
67192;HTU21D;54120;53.504;49.426;2023-02-23T07:38:47;-11.54;73.00
67192;HTU21D;54120;53.504;49.426;2023-02-23T07:41:14;-11.48;73.21
67192;HTU21D;54120;53.504;49.426;2023-02-23T07:43:40;-11.52;73.04
67192;HTU21D;54120;53.504;49.426;2023-02-23T07:46:07;-11.36;72.90
67192;HTU21D;54120;53.504;49.426;2023-02-23T07:48:33;-11.38;72.77
67192;HTU21D;54120;53.504;49.426;2023-02-23T07:50:59;-11.16;72.51
67192;HTU21D;54120;53.504;49.426;2023-02-23T07:53:25;-10.93;71.00
67192;HTU21D;54120;53.504;49.426;2023-02-23T07:55:56;-11.02;71.19
67192;HTU21D;54120;53.504;49.426;2023-02-23T07:58:22;-11.10;71.01
67192;HTU21D;54120;53.504;49.426;2023-02-23T08:00:49;-11.29;71.90
67192;HTU21D;54120;53.504;49.426;2023-02-23T08:03:15;-11.18;71.55
67192;HTU21D;54120;53.504;49.426;2023-02-23T08:05:41;-11.16;72.18
67192;HTU21D;54120;53.504;49.426;2023-02-23T08:08:09;-11.05;71.32
67192;HTU21D;54120;53.504;49.426;2023-02-23T08:10:36;-11.03;71.36
67192;HTU21D;54120;53.504;49.426;2023-02-23T08:13:03;-10.78;70.49
67192;HTU21D;54120;53.504;49.426;2023-02-23T08:15:29;-10.56;69.85
67192;HTU21D;54120;53.504;49.426;2023-02-23T08:17:56;-10.76;69.78
67192;HTU21D;54120;53.504;49.426;2023-02-23T08:20:23;-10.71;70.00
67192;HTU21D;54120;53.504;49.426;2023-02-23T08:22:56;-10.60;70.98
67192;HTU21D;54120;53.504;49.426;2023-02-23T08:25:22;-10.73;70.14
67192;HTU21D;54120;53.504;49.426;2023-02-23T08:27:49;-10.90;71.03
67192;HTU21D;54120;53.504;49.426;2023-02-23T08:30:20;-10.85;71.41
67192;HTU21D;54120;53.504;49.426;2023-02-23T08:32:47;-10.94;70.49
67192;HTU21D;54120;53.504;49.426;2023-02-23T08:35:13;-10.96;71.40
67192;HTU21D;54120;53.504;49.426;2023-02-23T08:37:40;-10.92;72.32
67192;HTU21D;54120;53.504;49.426;2023-02-23T08:40:11;-10.66;70.82
67192;HTU21D;54120;53.504;49.426;2023-02-23T08:42:41;-10.75;70.85
67192;HTU21D;54120;53.504;49.426;2023-02-23T08:45:08;-10.75;70.93
67192;HTU21D;54120;53.504;49.426;2023-02-23T08:47:34;-11.01;71.35
67192;HTU21D;54120;53.504;49.426;2023-02-23T08:50:01;-10.89;71.83
67192;HTU21D;54120;53.504;49.426;2023-02-23T08:52:27;-10.76;71.22
67192;HTU21D;54120;53.504;49.426;2023-02-23T08:54:53;-10.67;70.73
67192;HTU21D;54120;53.504;49.426;2023-02-23T08:57:21;-10.75;71.27
67192;HTU21D;54120;53.504;49.426;2023-02-23T08:59:47;-10.58;70.64
67192;HTU21D;54120;53.504;49.426;2023-02-23T09:02:13;-10.67;70.60
67192;HTU21D;54120;53.504;49.426;2023-02-23T09:04:40;-10.45;70.55
67192;HTU21D;54120;53.504;49.426;2023-02-23T09:07:14;-10.47;69.45
67192;HTU21D;54120;53.504;49.426;2023-02-23T09:09:40;-10.47;69.62
67192;HTU21D;54120;53.504;49.426;2023-02-23T09:12:06;-10.31;69.36
67192;HTU21D;54120;53.504;49.426;2023-02-23T09:14:33;-10.22;69.05
67192;HTU21D;54120;53.504;49.426;2023-02-23T09:17:01;-10.40;69.50
67192;HTU21D;54120;53.504;49.426;2023-02-23T09:19:27;-10.31;69.27
67192;HTU21D;54120;53.504;49.426;2023-02-23T09:21:53;-10.29;69.28
67192;HTU21D;54120;53.504;49.426;2023-02-23T09:24:20;-9.98;68.30
67192;HTU21D;54120;53.504;49.426;2023-02-23T09:26:47;-10.17;69.26
67192;HTU21D;54120;53.504;49.426;2023-02-23T09:29:13;-10.16;69.15
67192;HTU21D;54120;53.504;49.426;2023-02-23T09:31:39;-10.15;68.75
67192;HTU21D;54120;53.504;49.426;2023-02-23T09:34:08;-10.23;69.36
67192;HTU21D;54120;53.504;49.426;2023-02-23T09:36:34;-10.27;69.16
67192;HTU21D;54120;53.504;49.426;2023-02-23T09:39:01;-10.23;69.48
67192;HTU21D;54120;53.504;49.426;2023-02-23T09:41:44;-10.12;68.54
67192;HTU21D;54120;53.504;49.426;2023-02-23T09:49:34;-10.17;69.59
67192;HTU21D;54120;53.504;49.426;2023-02-23T09:52:03;-9.90;68.17
67192;HTU21D;54120;53.504;49.426;2023-02-23T09:54:32;-9.83;68.35
67192;HTU21D;54120;53.504;49.426;2023-02-23T09:57:02;-9.85;68.20
67192;HTU21D;54120;53.504;49.426;2023-02-23T10:05:58;-9.56;67.54
67192;HTU21D;54120;53.504;49.426;2023-02-23T10:13:22;-9.78;68.35
67192;HTU21D;54120;53.504;49.426;2023-02-23T10:21:29;-9.70;68.49
67192;HTU21D;54120;53.504;49.426;2023-02-23T10:26:50;-9.62;68.36
67192;HTU21D;54120;53.504;49.426;2023-02-23T10:32:02;-9.63;67.92
67192;HTU21D;54120;53.504;49.426;2023-02-23T10:34:29;-9.61;69.07
67192;HTU21D;54120;53.504;49.426;2023-02-23T10:37:04;-9.60;68.36
67192;HTU21D;54120;53.504;49.426;2023-02-23T10:39:31;-9.82;68.87
67192;HTU21D;54120;53.504;49.426;2023-02-23T10:42:02;-10.04;69.52
67192;HTU21D;54120;53.504;49.426;2023-02-23T10:44:29;-10.14;70.29
67192;HTU21D;54120;53.504;49.426;2023-02-23T10:47:09;-10.03;70.16
67192;HTU21D;54120;53.504;49.426;2023-02-23T10:49:44;-9.99;69.80
67192;HTU21D;54120;53.504;49.426;2023-02-23T10:52:14;-10.21;70.39
67192;HTU21D;54120;53.504;49.426;2023-02-23T10:54:45;-10.26;71.45
67192;HTU21D;54120;53.504;49.426;2023-02-23T10:57:26;-10.08;70.55
67192;HTU21D;54120;53.504;49.426;2023-02-23T11:00:23;-10.04;70.38
67192;HTU21D;54120;53.504;49.426;2023-02-23T11:02:52;-9.93;70.03
67192;HTU21D;54120;53.504;49.426;2023-02-23T11:05:47;-9.99;70.32
67192;HTU21D;54120;53.504;49.426;2023-02-23T11:10:41;-9.96;70.10
67192;HTU21D;54120;53.504;49.426;2023-02-23T11:13:25;-9.83;69.81
67192;HTU21D;54120;53.504;49.426;2023-02-23T11:16:03;-9.57;69.48
67192;HTU21D;54120;53.504;49.426;2023-02-23T11:18:31;-9.58;69.07
67192;HTU21D;54120;53.504;49.426;2023-02-23T11:20:57;-9.62;68.98
67192;HTU21D;54120;53.504;49.426;2023-02-23T11:23:34;-9.74;69.62
67192;HTU21D;54120;53.504;49.426;2023-02-23T11:26:29;-9.68;69.83
67192;HTU21D;54120;53.504;49.426;2023-02-23T11:28:58;-9.56;69.77
67192;HTU21D;54120;53.504;49.426;2023-02-23T11:31:33;-9.39;68.62
67192;HTU21D;54120;53.504;49.426;2023-02-23T11:34:01;-9.58;69.38
67192;HTU21D;54120;53.504;49.426;2023-02-23T11:36:32;-9.49;69.55
67192;HTU21D;54120;53.504;49.426;2023-02-23T11:41:30;-9.36;68.88
67192;HTU21D;54120;53.504;49.426;2023-02-23T11:44:41;-9.43;69.08
67192;HTU21D;54120;53.504;49.426;2023-02-23T11:47:21;-9.47;69.34
67192;HTU21D;54120;53.504;49.426;2023-02-23T11:49:49;-9.53;69.65
67192;HTU21D;54120;53.504;49.426;2023-02-23T11:52:19;-9.43;69.62
67192;HTU21D;54120;53.504;49.426;2023-02-23T11:54:56;-9.37;68.65
67192;HTU21D;54120;53.504;49.426;2023-02-23T11:57:28;-9.37;69.15
67192;HTU21D;54120;53.504;49.426;2023-02-23T12:05:29;-9.41;69.55
67192;HTU21D;54120;53.504;49.426;2023-02-23T12:08:19;-9.42;69.18
67192;HTU21D;54120;53.504;49.426;2023-02-23T12:10:53;-9.63;69.65
67192;HTU21D;54120;53.504;49.426;2023-02-23T12:15:59;-9.47;69.97
67192;HTU21D;54120;53.504;49.426;2023-02-23T12:18:39;-9.61;69.78
67192;HTU21D;54120;53.504;49.426;2023-02-23T12:21:40;-9.71;70.33
67192;HTU21D;54120;53.504;49.426;2023-02-23T12:24:18;-9.53;70.10
67192;HTU21D;54120;53.504;49.426;2023-02-23T12:26:52;-9.42;70.00
67192;HTU21D;54120;53.504;49.426;2023-02-23T12:30:03;-9.51;70.23
67192;HTU21D;54120;53.504;49.426;2023-02-23T12:32:38;-9.33;70.19
67192;HTU21D;54120;53.504;49.426;2023-02-23T12:37:53;-9.54;70.02
67192;HTU21D;54120;53.504;49.426;2023-02-23T12:45:45;-9.58;69.05
67192;HTU21D;54120;53.504;49.426;2023-02-23T12:48:32;-9.58;69.20
67192;HTU21D;54120;53.504;49.426;2023-02-23T12:51:04;-9.57;68.83
67192;HTU21D;54120;53.504;49.426;2023-02-23T12:53:40;-9.81;68.87
67192;HTU21D;54120;53.504;49.426;2023-02-23T13:01:53;-10.18;69.55
67192;HTU21D;54120;53.504;49.426;2023-02-23T13:10:41;-10.13;69.93
67192;HTU21D;54120;53.504;49.426;2023-02-23T13:18:56;-10.38;70.07
67192;HTU21D;54120;53.504;49.426;2023-02-23T13:21:29;-10.46;70.30
67192;HTU21D;54120;53.504;49.426;2023-02-23T13:31:43;-10.50;70.09
67192;HTU21D;54120;53.504;49.426;2023-02-23T13:34:23;-10.48;70.14
67192;HTU21D;54120;53.504;49.426;2023-02-23T13:36:51;-10.53;70.03
67192;HTU21D;54120;53.504;49.426;2023-02-23T13:43:05;-10.67;70.57
67192;HTU21D;54120;53.504;49.426;2023-02-23T13:48:23;-10.75;70.63
67192;HTU21D;54120;53.504;49.426;2023-02-23T13:51:01;-10.86;70.86
67192;HTU21D;54120;53.504;49.426;2023-02-23T13:53:32;-10.89;70.84
67192;HTU21D;54120;53.504;49.426;2023-02-23T13:56:14;-10.94;71.22
67192;HTU21D;54120;53.504;49.426;2023-02-23T13:58:53;-10.95;71.49
67192;HTU21D;54120;53.504;49.426;2023-02-23T14:01:35;-11.00;71.50
67192;HTU21D;54120;53.504;49.426;2023-02-23T14:04:12;-11.04;71.64
67192;HTU21D;54120;53.504;49.426;2023-02-23T14:06:49;-11.09;71.80
67192;HTU21D;54120;53.504;49.426;2023-02-23T14:09:30;-11.14;72.18
67192;HTU21D;54120;53.504;49.426;2023-02-23T14:12:15;-11.18;72.26
67192;HTU21D;54120;53.504;49.426;2023-02-23T14:14:45;-11.22;72.43
67192;HTU21D;54120;53.504;49.426;2023-02-23T14:22:16;-11.41;73.44
67192;HTU21D;54120;53.504;49.426;2023-02-23T14:27:56;-11.46;73.50
67192;HTU21D;54120;53.504;49.426;2023-02-23T14:30:30;-11.48;73.58
67192;HTU21D;54120;53.504;49.426;2023-02-23T14:36:00;-11.59;73.98
67192;HTU21D;54120;53.504;49.426;2023-02-23T14:38:32;-11.60;74.03
67192;HTU21D;54120;53.504;49.426;2023-02-23T14:41:00;-11.60;74.14
67192;HTU21D;54120;53.504;49.426;2023-02-23T14:46:17;-11.65;74.39
67192;HTU21D;54120;53.504;49.426;2023-02-23T14:48:55;-11.70;74.57
67192;HTU21D;54120;53.504;49.426;2023-02-23T14:51:44;-11.75;74.63
67192;HTU21D;54120;53.504;49.426;2023-02-23T14:54:33;-11.77;75.04
67192;HTU21D;54120;53.504;49.426;2023-02-23T14:57:06;-11.80;75.12
67192;HTU21D;54120;53.504;49.426;2023-02-23T14:59:43;-11.81;74.89
67192;HTU21D;54120;53.504;49.426;2023-02-23T15:02:16;-11.80;74.98
67192;HTU21D;54120;53.504;49.426;2023-02-23T15:04:43;-11.77;74.86
67192;HTU21D;54120;53.504;49.426;2023-02-23T15:07:18;-11.81;74.93
67192;HTU21D;54120;53.504;49.426;2023-02-23T15:09:50;-11.83;75.50
67192;HTU21D;54120;53.504;49.426;2023-02-23T15:12:23;-11.81;75.26
67192;HTU21D;54120;53.504;49.426;2023-02-23T15:14:58;-11.80;75.50
67192;HTU21D;54120;53.504;49.426;2023-02-23T15:17:28;-11.77;74.94
67192;HTU21D;54120;53.504;49.426;2023-02-23T15:19:59;-11.78;75.10
67192;HTU21D;54120;53.504;49.426;2023-02-23T15:22:37;-11.86;75.16
67192;HTU21D;54120;53.504;49.426;2023-02-23T15:25:19;-11.94;74.96
67192;HTU21D;54120;53.504;49.426;2023-02-23T15:27:46;-11.98;74.76
67192;HTU21D;54120;53.504;49.426;2023-02-23T15:30:30;-11.97;75.05
67192;HTU21D;54120;53.504;49.426;2023-02-23T15:33:10;-12.01;75.09
67192;HTU21D;54120;53.504;49.426;2023-02-23T15:36:06;-12.03;75.08
67192;HTU21D;54120;53.504;49.426;2023-02-23T15:38:38;-12.05;75.44
67192;HTU21D;54120;53.504;49.426;2023-02-23T15:41:11;-12.06;75.73
67192;HTU21D;54120;53.504;49.426;2023-02-23T15:43:41;-12.04;75.78
67192;HTU21D;54120;53.504;49.426;2023-02-23T15:46:08;-12.01;75.47
67192;HTU21D;54120;53.504;49.426;2023-02-23T15:48:43;-12.03;75.49
67192;HTU21D;54120;53.504;49.426;2023-02-23T15:53:55;-12.15;75.86
67192;HTU21D;54120;53.504;49.426;2023-02-23T15:56:27;-12.22;76.03
67192;HTU21D;54120;53.504;49.426;2023-02-23T15:59:02;-12.26;76.50
67192;HTU21D;54120;53.504;49.426;2023-02-23T16:01:30;-12.28;75.69
67192;HTU21D;54120;53.504;49.426;2023-02-23T16:04:00;-12.39;75.63
67192;HTU21D;54120;53.504;49.426;2023-02-23T16:06:33;-12.52;76.00
67192;HTU21D;54120;53.504;49.426;2023-02-23T16:11:51;-12.65;76.50
67192;HTU21D;54120;53.504;49.426;2023-02-23T16:14:20;-12.68;76.46
67192;HTU21D;54120;53.504;49.426;2023-02-23T16:16:48;-12.75;76.57
67192;HTU21D;54120;53.504;49.426;2023-02-23T16:19:16;-12.79;77.02
67192;HTU21D;54120;53.504;49.426;2023-02-23T16:21:48;-12.80;77.46
67192;HTU21D;54120;53.504;49.426;2023-02-23T16:24:19;-12.80;77.27
67192;HTU21D;54120;53.504;49.426;2023-02-23T16:26:56;-12.82;77.45
67192;HTU21D;54120;53.504;49.426;2023-02-23T16:29:33;-12.85;77.43
67192;HTU21D;54120;53.504;49.426;2023-02-23T16:32:19;-12.85;78.09
67192;HTU21D;54120;53.504;49.426;2023-02-23T16:34:53;-12.93;77.46
67192;HTU21D;54120;53.504;49.426;2023-02-23T16:37:22;-12.99;77.95
67192;HTU21D;54120;53.504;49.426;2023-02-23T16:39:51;-13.00;78.16
67192;HTU21D;54120;53.504;49.426;2023-02-23T16:44:49;-13.01;78.60
67192;HTU21D;54120;53.504;49.426;2023-02-23T16:49:48;-13.03;78.63
67192;HTU21D;54120;53.504;49.426;2023-02-23T16:52:18;-13.08;78.59
67192;HTU21D;54120;53.504;49.426;2023-02-23T16:54:45;-13.10;78.63
67192;HTU21D;54120;53.504;49.426;2023-02-23T16:57:21;-13.14;78.92
67192;HTU21D;54120;53.504;49.426;2023-02-23T16:59:50;-13.14;79.35
67192;HTU21D;54120;53.504;49.426;2023-02-23T17:02:17;-13.19;78.98
67192;HTU21D;54120;53.504;49.426;2023-02-23T17:04:48;-13.21;80.02
67192;HTU21D;54120;53.504;49.426;2023-02-23T17:07:16;-13.17;79.38
67192;HTU21D;54120;53.504;49.426;2023-02-23T17:09:42;-13.22;79.43
67192;HTU21D;54120;53.504;49.426;2023-02-23T17:12:11;-13.30;79.26
67192;HTU21D;54120;53.504;49.426;2023-02-23T17:14:39;-13.28;79.95
67192;HTU21D;54120;53.504;49.426;2023-02-23T17:17:05;-13.30;80.13
67192;HTU21D;54120;53.504;49.426;2023-02-23T17:19:31;-13.32;79.77
67192;HTU21D;54120;53.504;49.426;2023-02-23T17:21:57;-13.33;79.66
67192;HTU21D;54120;53.504;49.426;2023-02-23T17:24:23;-13.34;80.17
67192;HTU21D;54120;53.504;49.426;2023-02-23T17:26:52;-13.36;79.77
67192;HTU21D;54120;53.504;49.426;2023-02-23T17:29:18;-13.36;80.13
67192;HTU21D;54120;53.504;49.426;2023-02-23T17:31:44;-13.28;79.47
67192;HTU21D;54120;53.504;49.426;2023-02-23T17:34:13;-13.26;79.31
67192;HTU21D;54120;53.504;49.426;2023-02-23T17:36:43;-13.25;78.95